Terminal Aerodrome Forecast
Issued by NWS Jackson, MS

Home | Current Version | Previous Version | Text Only | Print | Product List | Glossary On
Versions: 1 2 3 4 5 6 7 8 9 10 11 12 13 14
000
FTUS44 KJAN 280527
TAFGWO
TAF
KGWO 280527Z 2806/0106 17011KT 5SM BR OVC006
     FM281500 19015KT P6SM BKN015 OVC025
     FM281900 19017G22KT P6SM BKN025 BKN050=

USA.gov is the U.S. government's official web portal to all federal, state and local government web resources and services.